Mount Zion, West Virginia
Current Conditions -  °F | °C
As of 10:53 AM on Sunday 25 Jan 2015 (Local Time) from KPKB Reporting Station
Overcast Overcast  
Wind Chill: 36°   Ceiling: 6000
Heat Index: 36°   Visibility: 7mi
Dew Point: 32°   Wind: 0mph
Humidity: 86%   Direction: NA
Pressure: 29.84"   Gusts: NA
Location:  38.87°N, 81.12°W
Report Text: KPKB 251553Z 00000KT 7SM BKN060 OVC080 02/00 A2984 RMK AO2 SLP110 T00220000
Loading
Personal Weather Stations






























Interactive Weather Map New forecast layout! Learn more

10-Day Weather Forecast

Advertisements
Track Severe Weather on mobile